Airfield :







YOU CAN JOIN US ON...

 
LOGIN :

Register | Disclaimer

   EN    FR    IT 

 









Legend :    VFR   Marginal VFR   IFR   Intensive IFR   Very Intensive IFR
Visi :
Ceiling :
>= 8 km
>= 3000ft
5 to 8 km
1000 to 3000 ft
1500m to 5 km
500 to 1000 ft
800 to 1500m
200 to 500 ft
< 800m
< 200 ft
Symbols :   Thunderstorms  Fog  Heavy snow  Heavy precipitations  Wind > 20 kt






- Airport Elevation : 1270 ft
- IATA code : YMT


CYMT - Chapais

CURRENT METAR :
  • 120400Z AUTO 28008G15KT 270V330 8SM SCT016 M22/M25 A3004 RMK PRESRR SLP219

EXPIRED METARs :
  • 120357Z AUTO 29007G15KT 270V330 6SM HZ SCT016 M22/M25 A3004 RMK PRESRR SLP220
  • 120347Z AUTO 30011G19KT 3SM -SN BKN018 M22/M25 A3003 RMK PRESRR SLP217
  • 120338Z AUTO 30012G21KT 9SM -SN BKN022 M21/M25 A3002 RMK SLP212
  • 120315Z AUTO 29012G25KT 7SM -SN FEW017 BKN022 BKN110 M20/M24 A2999 RMK PRESRR SLP203
  • 120301Z AUTO 29014G22KT 3SM -SN FEW016 BKN035 OVC110 M20/M24 A2997 RMK PRESRR SLP196
  • 120258Z AUTO 28014G22KT 2SM -SN FEW016 BKN035 OVC110 M20/M23 A2997 RMK VIS VRB 1 1/4-3 PRESRR SLP197
  • 120248Z AUTO 29009G20KT 2 1/4SM -SN OVC037 M19/M23 A2996 RMK SLP194

Expired Forecast.



MET'MAP, your aeronautical weather chart ! - Copyright ORBIFLY December 2007 - Disclaimer

ORBIFLY MET'MAP TEAM :

Programming & Development : Alexandra Zaïnal
Concept & original design : Baudouin d'Aumeries
Assistance for programming : Marc-Olivier Méhu
Technical & hardware support : Manuel Goepfert

Contact : metmap@orbifly.com




SOURCES & CREDITS :

   NOAA